createdAt,value
2018-11-20T00:01:46.345Z,13.05
2018-11-20T00:04:35.554Z,12.90
2018-11-20T00:07:43.361Z,12.93
2018-11-20T00:10:32.254Z,13.98
2018-11-20T00:13:21.251Z,12.45
2018-11-20T00:18:56.647Z,22.98
2018-11-20T00:21:45.529Z,16.45
2018-11-20T00:24:35.444Z,21.37
2018-11-20T00:27:43.398Z,18.75
2018-11-20T00:30:32.400Z,20.60
2018-11-20T00:33:11.033Z,13.40
2018-11-20T00:36:00.097Z,13.90
2018-11-20T00:38:48.999Z,12.45
2018-11-20T00:44:20.428Z,13.28
2018-11-20T00:47:09.321Z,13.53
2018-11-20T00:49:58.302Z,11.95
2018-11-20T00:52:47.295Z,12.75
2018-11-20T00:56:15.588Z,14.25
2018-11-20T00:59:04.500Z,16.60
2018-11-20T01:01:53.453Z,14.00
2018-11-20T01:07:27.745Z,13.93
2018-11-20T01:10:17.180Z,15.30
2018-11-20T01:13:06.438Z,14.47
2018-11-20T01:15:55.488Z,15.23
2018-11-20T01:18:37.445Z,14.23
2018-11-20T01:24:03.048Z,13.22
2018-11-20T01:26:52.097Z,14.68
2018-11-20T01:29:59.780Z,15.18
2018-11-20T01:35:33.706Z,14.87
2018-11-20T01:38:22.609Z,13.43
2018-11-20T01:41:11.780Z,12.35
2018-11-20T01:44:00.758Z,19.92
2018-11-20T01:47:08.465Z,12.50
2018-11-20T01:49:57.515Z,12.47
2018-11-20T01:53:06.157Z,13.30
2018-11-20T01:55:55.053Z,12.40
2018-11-20T01:58:44.008Z,11.48
2018-11-20T02:04:16.718Z,12.55
2018-11-20T02:07:06.698Z,12.50
2018-11-20T02:09:55.625Z,11.83
2018-11-20T02:16:23.609Z,11.20
2018-11-20T02:21:58.084Z,10.58
2018-11-20T02:24:46.906Z,9.05
2018-11-20T02:27:35.859Z,9.73
2018-11-20T02:36:21.202Z,10.55
2018-11-20T02:39:10.181Z,9.65
2018-11-20T02:41:59.281Z,11.53
2018-11-20T02:44:48.282Z,12.68
2018-11-20T02:47:37.138Z,12.20
2018-11-20T02:50:44.854Z,12.93
2018-11-20T02:56:50.751Z,12.25
2018-11-20T02:59:58.528Z,12.40
2018-11-20T03:05:41.782Z,11.53
2018-11-20T03:08:49.744Z,12.28
2018-11-20T03:11:38.805Z,11.10
2018-11-20T03:14:28.544Z,11.73
2018-11-20T03:17:17.410Z,11.25
2018-11-20T03:19:58.491Z,10.60
2018-11-20T03:22:50.396Z,13.15
2018-11-20T03:25:59.328Z,11.38
2018-11-20T03:31:57.402Z,9.25
2018-11-20T03:35:05.078Z,9.93
2018-11-20T03:37:54.278Z,10.20
2018-11-20T03:40:43.221Z,11.30
2018-11-20T03:43:32.484Z,10.63
2018-11-20T03:51:58.718Z,11.38
2018-11-20T03:54:47.685Z,11.05
2018-11-20T04:00:20.722Z,11.38
2018-11-20T04:03:09.714Z,12.18
2018-11-20T04:06:17.361Z,11.50
2018-11-20T04:08:59.102Z,8.68
2018-11-20T04:11:39.948Z,12.00
2018-11-20T04:14:29.663Z,12.15
2018-11-20T04:17:18.560Z,12.50
2018-11-20T04:19:59.944Z,11.83
2018-11-20T04:28:29.344Z,11.95
2018-11-20T04:31:56.402Z,13.05
2018-11-20T04:34:45.411Z,11.50
2018-11-20T04:37:34.375Z,12.95
2018-11-20T04:40:34.233Z,13.53
2018-11-20T04:43:23.939Z,13.40
2018-11-20T04:46:12.807Z,13.95
2018-11-20T04:49:01.915Z,13.72
2018-11-20T04:52:09.564Z,14.63
2018-11-20T04:54:58.616Z,14.78
2018-11-20T04:57:47.963Z,12.88
2018-11-20T05:00:55.576Z,13.60
2018-11-20T05:06:57.679Z,14.60
2018-11-20T05:09:46.655Z,14.55
2018-11-20T05:12:54.340Z,13.50
2018-11-20T05:15:43.312Z,15.08
2018-11-20T05:18:33.069Z,14.47
2018-11-20T05:21:22.153Z,15.05
2018-11-20T05:24:29.926Z,15.13
2018-11-20T05:27:18.807Z,16.82
2018-11-20T05:30:07.772Z,15.98
2018-11-20T05:36:03.600Z,16.12
2018-11-20T05:38:52.476Z,15.70
2018-11-20T05:41:53.591Z,31.60
2018-11-20T05:44:42.427Z,103.75
2018-11-20T05:47:32.187Z,32.38
2018-11-20T05:50:21.123Z,12.37
2018-11-20T05:56:29.491Z,11.70
2018-11-20T05:59:18.392Z,11.93
2018-11-20T06:02:07.382Z,11.70
2018-11-20T06:04:56.325Z,12.98
2018-11-20T06:07:45.410Z,10.30
2018-11-20T06:10:34.359Z,10.23
2018-11-20T06:13:23.321Z,10.43
2018-11-20T06:16:12.244Z,10.15
2018-11-20T06:19:19.984Z,12.45
2018-11-20T06:21:59.736Z,11.15
2018-11-20T06:27:41.226Z,11.83
2018-11-20T06:30:30.688Z,12.75
2018-11-20T06:33:19.638Z,10.58
2018-11-20T06:36:08.963Z,10.68
2018-11-20T06:42:36.623Z,10.25
2018-11-20T06:45:24.794Z,10.88
2018-11-20T06:57:09.175Z,11.65
2018-11-20T06:59:57.382Z,12.00
2018-11-20T07:02:45.560Z,11.65
2018-11-20T07:08:25.780Z,17.15
2018-11-20T07:11:13.769Z,13.67
2018-11-20T07:14:31.308Z,12.63
2018-11-20T07:17:22.830Z,12.30
2018-11-20T07:20:11.013Z,12.10
2018-11-20T07:22:59.571Z,12.37
2018-11-20T07:25:43.271Z,13.08
2018-11-20T07:28:31.342Z,13.58
2018-11-20T07:31:19.582Z,12.43
2018-11-20T07:37:06.804Z,12.68
2018-11-20T07:39:54.715Z,11.83
2018-11-20T07:42:43.448Z,11.68
2018-11-20T07:45:31.617Z,15.68
2018-11-20T07:48:20.306Z,13.10
2018-11-20T07:51:08.346Z,12.53
2018-11-20T07:53:56.508Z,11.30
2018-11-20T07:56:44.585Z,12.00
2018-11-20T08:02:37.639Z,13.20
2018-11-20T08:05:25.893Z,13.30
2018-11-20T08:08:13.960Z,11.93
2018-11-20T08:11:02.110Z,12.20
2018-11-20T08:13:50.247Z,12.40
2018-11-20T08:16:38.512Z,12.47
2018-11-20T08:19:26.761Z,12.80
2018-11-20T08:22:14.929Z,11.70
2018-11-20T08:25:03.060Z,12.83
2018-11-20T08:28:07.015Z,12.70
2018-11-20T08:30:55.162Z,12.70
2018-11-20T08:33:44.053Z,14.13
2018-11-20T08:36:32.159Z,16.43
2018-11-20T08:39:20.481Z,13.00
2018-11-20T08:42:08.590Z,13.70
2018-11-20T08:44:56.686Z,17.33
2018-11-20T08:47:44.828Z,14.90
2018-11-20T08:50:33.016Z,15.67
2018-11-20T08:53:21.146Z,12.80
2018-11-20T08:56:24.416Z,12.60
2018-11-20T08:59:12.500Z,13.17
2018-11-20T09:02:01.477Z,16.33
2018-11-20T09:04:49.591Z,20.10
2018-11-20T09:07:38.616Z,11.70
2018-11-20T09:10:26.892Z,15.90
2018-11-20T09:13:14.988Z,13.17
2018-11-20T09:16:03.068Z,16.07
2018-11-20T09:18:51.184Z,15.50
2018-11-20T09:27:31.452Z,18.73
2018-11-20T09:45:32.745Z,12.63
2018-11-20T10:05:44.705Z,12.63
2018-11-20T10:08:46.141Z,16.87
2018-11-20T10:11:34.222Z,14.57
2018-11-20T10:14:22.476Z,14.50
2018-11-20T10:17:23.215Z,15.30
2018-11-20T10:23:21.103Z,13.20
2018-11-20T10:26:09.349Z,13.23
2018-11-20T10:28:57.355Z,12.80
2018-11-20T10:31:45.433Z,14.47
2018-11-20T10:34:26.519Z,14.00
2018-11-20T10:37:14.712Z,14.90
2018-11-20T10:40:02.871Z,13.80
2018-11-20T10:42:51.038Z,13.67
2018-11-20T10:45:39.221Z,14.27
2018-11-20T10:48:27.270Z,13.97
2018-11-20T10:51:15.429Z,14.80
2018-11-20T10:54:03.488Z,14.30
2018-11-20T10:56:51.690Z,14.10
2018-11-20T10:59:39.799Z,12.43
2018-11-20T11:02:27.885Z,13.20
2018-11-20T11:05:16.010Z,14.63
2018-11-20T11:08:05.097Z,17.33
2018-11-20T11:10:53.129Z,16.17
2018-11-20T11:13:42.139Z,18.57
2018-11-20T11:16:30.254Z,16.10
2018-11-20T11:19:18.423Z,18.03
2018-11-20T11:22:06.479Z,29.40
2018-11-20T11:24:54.572Z,13.70
2018-11-20T11:27:42.837Z,13.73
2018-11-20T11:30:31.076Z,14.80
2018-11-20T11:33:24.250Z,14.60
2018-11-20T11:36:07.450Z,18.80
2018-11-20T11:39:04.153Z,15.20
2018-11-20T11:41:53.178Z,15.40
2018-11-20T11:44:41.250Z,16.07
2018-11-20T11:50:16.689Z,15.57
2018-11-20T11:53:04.823Z,17.33
2018-11-20T11:55:52.938Z,16.50
2018-11-20T11:58:41.643Z,16.67
2018-11-20T12:04:16.933Z,15.47
2018-11-20T12:07:05.104Z,17.00
2018-11-20T12:09:47.289Z,16.90
2018-11-20T12:18:26.578Z,16.63
2018-11-20T12:24:07.870Z,16.60
2018-11-20T12:38:56.997Z,16.63
2018-11-20T12:41:46.323Z,15.77
2018-11-20T12:44:33.282Z,16.83
2018-11-20T12:53:16.596Z,18.57
2018-11-20T12:56:04.750Z,18.67
2018-11-20T12:58:54.128Z,17.27
2018-11-20T13:01:40.606Z,16.53
2018-11-20T13:04:24.404Z,17.53
2018-11-20T13:07:12.501Z,16.20
2018-11-20T13:10:00.987Z,17.80
2018-11-20T13:12:48.840Z,17.73
2018-11-20T13:15:37.970Z,18.30
2018-11-20T13:18:17.178Z,15.97
2018-11-20T13:21:05.319Z,15.27
2018-11-20T13:23:53.444Z,16.90
2018-11-20T13:26:42.438Z,20.37
2018-11-20T13:29:30.647Z,20.60
2018-11-20T13:32:18.981Z,20.60
2018-11-20T13:35:07.167Z,19.73
2018-11-20T13:37:55.338Z,23.60
2018-11-20T13:41:24.628Z,19.03
2018-11-20T13:44:12.712Z,18.00
2018-11-20T13:47:12.548Z,22.07
2018-11-20T13:52:54.672Z,18.65
2018-11-20T13:58:30.342Z,20.97
2018-11-20T14:01:32.346Z,21.33
2018-11-20T14:04:08.476Z,21.37
2018-11-20T14:06:56.507Z,20.80
2018-11-20T14:09:44.642Z,18.57
2018-11-20T14:12:32.713Z,19.87
2018-11-20T14:15:22.487Z,22.30
2018-11-20T14:21:21.138Z,24.60
2018-11-20T14:24:09.250Z,24.67
2018-11-20T14:26:57.523Z,25.57
2018-11-20T14:29:45.644Z,25.90
2018-11-20T14:32:33.821Z,28.97
2018-11-20T14:35:23.322Z,34.50
2018-11-20T14:38:10.078Z,34.73
2018-11-20T14:41:01.024Z,27.85
2018-11-20T14:43:46.551Z,32.07
2018-11-20T14:46:53.763Z,31.20
2018-11-20T14:49:42.850Z,27.53
2018-11-20T14:52:31.136Z,24.63
2018-11-20T14:55:19.376Z,25.52
2018-11-20T14:58:07.550Z,29.80
2018-11-20T15:04:04.605Z,33.28
2018-11-20T15:06:52.832Z,40.57
2018-11-20T15:09:44.988Z,37.70
2018-11-20T15:15:30.327Z,27.15
2018-11-20T15:42:11.224Z,28.80
2018-11-20T15:44:59.338Z,32.23
2018-11-20T15:47:40.765Z,34.50
2018-11-20T15:50:29.640Z,31.07
2018-11-20T15:53:20.531Z,26.70
2018-11-20T15:56:08.586Z,26.68
2018-11-20T15:58:56.756Z,23.57
2018-11-20T16:01:45.466Z,23.47
2018-11-20T16:04:33.608Z,23.70
2018-11-20T16:07:21.853Z,24.73
2018-11-20T16:10:09.984Z,29.10
2018-11-20T16:12:58.131Z,28.10
2018-11-20T16:15:46.280Z,29.70
2018-11-20T16:18:34.355Z,34.77
2018-11-20T16:21:42.441Z,35.23
2018-11-20T16:24:30.565Z,28.43
2018-11-20T16:27:18.845Z,32.53
2018-11-20T16:30:06.970Z,32.60
2018-11-20T16:32:55.165Z,35.55
2018-11-20T16:35:43.339Z,39.70
2018-11-20T16:41:25.463Z,25.00
2018-11-20T16:44:32.719Z,26.17
2018-11-20T16:47:20.924Z,29.98
2018-11-20T16:50:09.042Z,27.98
2018-11-20T16:52:57.239Z,29.63
2018-11-20T16:55:45.359Z,37.80
2018-11-20T16:58:52.770Z,35.90
2018-11-20T17:01:40.867Z,39.78
2018-11-20T17:12:52.493Z,32.40
2018-11-20T17:15:40.556Z,30.20
2018-11-20T17:18:28.837Z,32.10
2018-11-20T17:21:16.873Z,39.60
2018-11-20T17:24:05.137Z,26.70
2018-11-20T17:26:53.234Z,27.50
2018-11-20T17:29:41.526Z,25.80
2018-11-20T17:32:20.956Z,25.20
2018-11-20T17:35:09.131Z,25.17
2018-11-20T17:37:57.278Z,27.00
2018-11-20T17:40:45.569Z,26.80
2018-11-20T17:43:33.697Z,28.53
2018-11-20T17:46:21.878Z,45.40
2018-11-20T17:49:10.064Z,32.83
2018-11-20T17:51:59.833Z,29.40
2018-11-20T17:54:47.938Z,34.63
2018-11-20T17:57:38.220Z,33.60
2018-11-20T18:09:37.454Z,30.83
2018-11-20T18:15:17.320Z,31.87
2018-11-20T18:21:03.516Z,36.23
2018-11-20T18:23:51.728Z,40.67
2018-11-20T18:29:33.449Z,40.60
2018-11-20T18:32:21.648Z,36.00
2018-11-20T18:35:09.879Z,32.43
2018-11-20T18:37:57.957Z,33.10
2018-11-20T18:40:46.179Z,36.77
2018-11-20T18:47:01.617Z,40.50
2018-11-20T18:49:49.723Z,34.77
2018-11-20T18:52:37.931Z,33.80
2018-11-20T18:55:26.675Z,33.07
2018-11-20T18:58:14.884Z,35.37
2018-11-20T19:01:03.072Z,32.90
2018-11-20T19:03:51.378Z,37.70
2018-11-20T19:06:39.577Z,37.37
2018-11-20T19:09:28.717Z,51.90
2018-11-20T19:12:09.478Z,40.83
2018-11-20T19:14:57.532Z,43.30
2018-11-20T19:17:45.586Z,34.07
2018-11-20T19:20:47.184Z,33.43
2018-11-20T19:23:47.048Z,35.77
2018-11-20T19:26:35.416Z,35.90
2018-11-20T19:29:23.565Z,33.67
2018-11-20T19:32:12.154Z,36.23
2018-11-20T19:35:00.415Z,36.73
2018-11-20T19:37:48.601Z,36.00
2018-11-20T19:40:36.758Z,37.57
2018-11-20T19:43:38.318Z,39.00
2018-11-20T19:46:26.515Z,37.80
2018-11-20T19:52:00.754Z,38.33
2018-11-20T19:54:43.988Z,38.07
2018-11-20T19:57:33.825Z,36.87
2018-11-20T20:00:22.405Z,46.80
2018-11-20T20:03:10.728Z,38.40
2018-11-20T20:05:58.861Z,36.87
2018-11-20T20:09:05.451Z,35.87
2018-11-20T20:11:53.620Z,34.60
2018-11-20T20:14:31.003Z,37.97
2018-11-20T20:20:04.890Z,36.23
2018-11-20T20:26:18.857Z,34.50
2018-11-20T20:29:07.276Z,35.17
2018-11-20T20:31:55.460Z,38.10
2018-11-20T20:34:44.813Z,42.73
2018-11-20T20:37:48.085Z,38.83
2018-11-20T20:40:36.194Z,37.90
2018-11-20T20:46:08.656Z,38.80
2018-11-20T20:48:56.833Z,38.50
2018-11-20T20:52:08.221Z,36.83
2018-11-20T20:54:56.412Z,35.67
2018-11-20T20:57:44.531Z,35.70
2018-11-20T21:03:25.457Z,38.73
2018-11-20T21:06:13.547Z,39.03
2018-11-20T21:09:01.677Z,38.13
2018-11-20T21:11:49.855Z,39.47
2018-11-20T21:14:37.920Z,40.13
2018-11-20T21:17:26.022Z,41.47
2018-11-20T21:20:14.166Z,36.23
2018-11-20T21:25:51.444Z,37.27
2018-11-20T21:28:39.535Z,38.43
2018-11-20T21:31:27.972Z,35.23
2018-11-20T21:34:16.142Z,37.57
2018-11-20T21:36:58.224Z,35.90
2018-11-20T21:39:46.511Z,36.00
2018-11-20T21:45:28.778Z,36.10
2018-11-20T21:48:16.908Z,35.50
2018-11-20T21:51:05.062Z,35.53
2018-11-20T21:53:53.237Z,36.20
2018-11-20T21:56:41.514Z,36.73
2018-11-20T21:59:35.047Z,34.60
2018-11-20T22:02:23.242Z,36.20
2018-11-20T22:05:11.651Z,35.30
2018-11-20T22:07:51.270Z,34.20
2018-11-20T22:10:39.433Z,34.57
2018-11-20T22:13:27.812Z,34.93
2018-11-20T22:16:16.098Z,33.70
2018-11-20T22:19:04.260Z,35.80
2018-11-20T22:21:52.472Z,29.93
2018-11-20T22:24:59.718Z,33.33
2018-11-20T22:27:48.079Z,33.70
2018-11-20T22:30:36.214Z,35.97
2018-11-20T22:33:37.516Z,35.97
2018-11-20T22:36:25.640Z,38.53
2018-11-20T22:39:13.825Z,35.20
2018-11-20T22:42:01.971Z,34.63
2018-11-20T22:44:50.140Z,35.57
2018-11-20T22:47:38.202Z,36.90
2018-11-20T22:50:26.760Z,35.00
2018-11-20T22:53:14.798Z,33.53
2018-11-20T22:56:02.934Z,31.50
2018-11-20T22:58:51.040Z,31.10
2018-11-20T23:01:39.144Z,32.20
2018-11-20T23:07:46.398Z,29.77
2018-11-20T23:10:17.471Z,30.77
2018-11-20T23:12:46.635Z,29.73
2018-11-20T23:15:16.445Z,32.17
2018-11-20T23:26:32.873Z,30.97
2018-11-20T23:29:02.115Z,29.07
2018-11-20T23:31:31.248Z,31.07
2018-11-20T23:34:00.406Z,30.70
2018-11-20T23:36:49.696Z,31.67
2018-11-20T23:39:18.869Z,30.60
2018-11-20T23:41:48.034Z,30.57
2018-11-20T23:44:17.804Z,31.87
2018-11-20T23:46:47.033Z,29.53
2018-11-20T23:49:16.165Z,30.13
2018-11-20T23:51:45.362Z,31.67
2018-11-20T23:54:14.514Z,27.33
2018-11-20T23:56:43.745Z,30.77
2018-11-20T23:59:13.016Z,30.40
